sensor_id;sensor_type;location;lat;lon;timestamp;P1;durP1;ratioP1;P2;durP2;ratioP2
10246;SDS011;5168;47.854;7.944;2022-11-15T00:02:21;2.40;;;1.90;;
10246;SDS011;5168;47.854;7.944;2022-11-15T00:04:47;2.73;;;2.37;;
10246;SDS011;5168;47.854;7.944;2022-11-15T00:07:13;3.13;;;2.30;;
10246;SDS011;5168;47.854;7.944;2022-11-15T00:09:39;4.50;;;2.60;;
10246;SDS011;5168;47.854;7.944;2022-11-15T00:12:04;3.37;;;2.53;;
10246;SDS011;5168;47.854;7.944;2022-11-15T00:14:30;2.80;;;2.40;;
10246;SDS011;5168;47.854;7.944;2022-11-15T00:16:56;2.40;;;2.20;;
10246;SDS011;5168;47.854;7.944;2022-11-15T00:19:22;2.37;;;2.17;;
10246;SDS011;5168;47.854;7.944;2022-11-15T00:21:48;2.90;;;2.20;;
10246;SDS011;5168;47.854;7.944;2022-11-15T00:24:14;2.77;;;2.27;;
10246;SDS011;5168;47.854;7.944;2022-11-15T00:26:39;2.63;;;2.40;;
10246;SDS011;5168;47.854;7.944;2022-11-15T00:29:05;2.53;;;2.33;;
10246;SDS011;5168;47.854;7.944;2022-11-15T00:31:31;2.17;;;1.97;;
10246;SDS011;5168;47.854;7.944;2022-11-15T00:33:57;2.60;;;2.40;;
10246;SDS011;5168;47.854;7.944;2022-11-15T00:36:23;2.93;;;2.63;;
10246;SDS011;5168;47.854;7.944;2022-11-15T00:38:48;3.27;;;2.43;;
10246;SDS011;5168;47.854;7.944;2022-11-15T00:41:14;5.00;;;2.50;;
10246;SDS011;5168;47.854;7.944;2022-11-15T00:43:40;3.03;;;2.37;;
10246;SDS011;5168;47.854;7.944;2022-11-15T00:46:08;3.87;;;2.20;;
10246;SDS011;5168;47.854;7.944;2022-11-15T00:48:34;2.40;;;2.20;;
10246;SDS011;5168;47.854;7.944;2022-11-15T00:51:00;3.17;;;2.10;;
10246;SDS011;5168;47.854;7.944;2022-11-15T00:53:26;2.30;;;2.20;;
10246;SDS011;5168;47.854;7.944;2022-11-15T00:55:52;2.43;;;2.23;;
10246;SDS011;5168;47.854;7.944;2022-11-15T00:58:18;2.63;;;2.43;;
10246;SDS011;5168;47.854;7.944;2022-11-15T01:00:44;4.17;;;2.43;;
10246;SDS011;5168;47.854;7.944;2022-11-15T01:03:10;2.23;;;2.03;;
10246;SDS011;5168;47.854;7.944;2022-11-15T01:05:36;2.40;;;2.20;;
10246;SDS011;5168;47.854;7.944;2022-11-15T01:08:02;3.13;;;2.30;;
10246;SDS011;5168;47.854;7.944;2022-11-15T01:10:28;2.50;;;2.30;;
10246;SDS011;5168;47.854;7.944;2022-11-15T01:12:54;3.80;;;2.37;;
10246;SDS011;5168;47.854;7.944;2022-11-15T01:15:20;2.57;;;2.37;;
10246;SDS011;5168;47.854;7.944;2022-11-15T01:17:46;3.57;;;2.17;;
10246;SDS011;5168;47.854;7.944;2022-11-15T01:20:13;2.43;;;2.20;;
10246;SDS011;5168;47.854;7.944;2022-11-15T01:22:39;2.10;;;1.90;;
10246;SDS011;5168;47.854;7.944;2022-11-15T01:25:05;2.73;;;2.17;;
10246;SDS011;5168;47.854;7.944;2022-11-15T01:27:30;4.40;;;2.50;;
10246;SDS011;5168;47.854;7.944;2022-11-15T01:29:56;2.50;;;2.30;;
10246;SDS011;5168;47.854;7.944;2022-11-15T01:32:22;3.63;;;2.10;;
10246;SDS011;5168;47.854;7.944;2022-11-15T01:34:48;2.43;;;2.20;;
10246;SDS011;5168;47.854;7.944;2022-11-15T01:37:14;2.70;;;2.50;;
10246;SDS011;5168;47.854;7.944;2022-11-15T01:39:40;2.70;;;2.50;;
10246;SDS011;5168;47.854;7.944;2022-11-15T01:42:08;2.20;;;2.00;;
10246;SDS011;5168;47.854;7.944;2022-11-15T01:44:48;3.00;;;2.40;;
10246;SDS011;5168;47.854;7.944;2022-11-15T01:47:16;3.53;;;3.20;;
10246;SDS011;5168;47.854;7.944;2022-11-15T01:49:50;4.80;;;3.53;;
10246;SDS011;5168;47.854;7.944;2022-11-15T01:52:20;3.27;;;2.97;;
10246;SDS011;5168;47.854;7.944;2022-11-15T01:54:49;3.63;;;2.83;;
10246;SDS011;5168;47.854;7.944;2022-11-15T01:57:20;3.17;;;2.87;;
10246;SDS011;5168;47.854;7.944;2022-11-15T01:59:46;3.00;;;2.70;;
10246;SDS011;5168;47.854;7.944;2022-11-15T02:02:12;3.53;;;2.43;;
10246;SDS011;5168;47.854;7.944;2022-11-15T02:04:41;2.40;;;2.20;;
10246;SDS011;5168;47.854;7.944;2022-11-15T02:07:09;2.30;;;2.10;;
10246;SDS011;5168;47.854;7.944;2022-11-15T02:09:37;2.80;;;2.50;;
10246;SDS011;5168;47.854;7.944;2022-11-15T02:12:03;3.10;;;2.67;;
10246;SDS011;5168;47.854;7.944;2022-11-15T02:14:29;3.33;;;2.37;;
10246;SDS011;5168;47.854;7.944;2022-11-15T02:17:08;3.47;;;2.50;;
10246;SDS011;5168;47.854;7.944;2022-11-15T02:25:37;3.13;;;2.37;;
10246;SDS011;5168;47.854;7.944;2022-11-15T02:30:33;2.90;;;2.50;;
10246;SDS011;5168;47.854;7.944;2022-11-15T02:40:55;3.23;;;2.90;;
10246;SDS011;5168;47.854;7.944;2022-11-15T02:43:43;2.43;;;2.23;;
10246;SDS011;5168;47.854;7.944;2022-11-15T02:49:18;2.97;;;2.30;;
10246;SDS011;5168;47.854;7.944;2022-11-15T02:51:45;2.60;;;2.20;;
10246;SDS011;5168;47.854;7.944;2022-11-15T02:54:23;2.47;;;2.27;;
10246;SDS011;5168;47.854;7.944;2022-11-15T02:56:51;2.17;;;2.07;;
10246;SDS011;5168;47.854;7.944;2022-11-15T03:06:50;3.27;;;2.33;;
10246;SDS011;5168;47.854;7.944;2022-11-15T03:09:35;2.20;;;2.00;;
10246;SDS011;5168;47.854;7.944;2022-11-15T03:12:12;2.83;;;2.10;;
10246;SDS011;5168;47.854;7.944;2022-11-15T03:15:11;2.00;;;1.90;;
10246;SDS011;5168;47.854;7.944;2022-11-15T03:17:49;2.50;;;2.30;;
10246;SDS011;5168;47.854;7.944;2022-11-15T03:20:20;2.10;;;1.90;;
10246;SDS011;5168;47.854;7.944;2022-11-15T03:22:47;2.40;;;2.20;;
10246;SDS011;5168;47.854;7.944;2022-11-15T03:25:17;2.70;;;2.37;;
10246;SDS011;5168;47.854;7.944;2022-11-15T03:27:48;2.50;;;2.30;;
10246;SDS011;5168;47.854;7.944;2022-11-15T03:30:20;3.20;;;2.00;;
10246;SDS011;5168;47.854;7.944;2022-11-15T03:32:48;2.30;;;2.10;;
10246;SDS011;5168;47.854;7.944;2022-11-15T03:35:20;1.90;;;1.80;;
10246;SDS011;5168;47.854;7.944;2022-11-15T03:37:55;2.20;;;2.00;;
10246;SDS011;5168;47.854;7.944;2022-11-15T03:40:38;2.90;;;2.13;;
10246;SDS011;5168;47.854;7.944;2022-11-15T03:43:10;2.30;;;2.10;;
10246;SDS011;5168;47.854;7.944;2022-11-15T03:45:46;2.13;;;2.03;;
10246;SDS011;5168;47.854;7.944;2022-11-15T03:48:21;2.73;;;2.40;;
10246;SDS011;5168;47.854;7.944;2022-11-15T03:50:51;2.33;;;2.17;;
10246;SDS011;5168;47.854;7.944;2022-11-15T03:53:17;2.17;;;1.97;;
10246;SDS011;5168;47.854;7.944;2022-11-15T03:55:43;2.23;;;2.03;;
10246;SDS011;5168;47.854;7.944;2022-11-15T03:58:09;2.47;;;1.90;;
10246;SDS011;5168;47.854;7.944;2022-11-15T04:00:35;2.07;;;1.87;;
10246;SDS011;5168;47.854;7.944;2022-11-15T04:03:01;2.13;;;2.03;;
10246;SDS011;5168;47.854;7.944;2022-11-15T04:05:27;3.27;;;2.10;;
10246;SDS011;5168;47.854;7.944;2022-11-15T04:07:53;2.20;;;2.00;;
10246;SDS011;5168;47.854;7.944;2022-11-15T04:10:19;4.70;;;1.93;;
10246;SDS011;5168;47.854;7.944;2022-11-15T04:12:45;2.30;;;2.10;;
10246;SDS011;5168;47.854;7.944;2022-11-15T04:15:16;2.10;;;1.90;;
10246;SDS011;5168;47.854;7.944;2022-11-15T04:20:10;2.00;;;1.90;;
10246;SDS011;5168;47.854;7.944;2022-11-15T04:23:00;2.03;;;1.93;;
10246;SDS011;5168;47.854;7.944;2022-11-15T04:25:45;2.20;;;2.10;;
10246;SDS011;5168;47.854;7.944;2022-11-15T04:28:14;1.80;;;1.70;;
10246;SDS011;5168;47.854;7.944;2022-11-15T04:30:40;2.27;;;2.03;;
10246;SDS011;5168;47.854;7.944;2022-11-15T04:33:06;4.60;;;2.03;;
10246;SDS011;5168;47.854;7.944;2022-11-15T04:35:32;2.00;;;1.80;;
10246;SDS011;5168;47.854;7.944;2022-11-15T04:37:58;2.43;;;2.10;;
10246;SDS011;5168;47.854;7.944;2022-11-15T04:40:24;2.07;;;1.93;;
10246;SDS011;5168;47.854;7.944;2022-11-15T04:42:50;2.20;;;2.00;;
10246;SDS011;5168;47.854;7.944;2022-11-15T04:45:15;2.07;;;1.90;;
10246;SDS011;5168;47.854;7.944;2022-11-15T04:47:43;2.00;;;1.80;;
10246;SDS011;5168;47.854;7.944;2022-11-15T04:50:09;2.23;;;2.10;;
10246;SDS011;5168;47.854;7.944;2022-11-15T04:52:38;2.00;;;1.90;;
10246;SDS011;5168;47.854;7.944;2022-11-15T04:55:04;1.83;;;1.70;;
10246;SDS011;5168;47.854;7.944;2022-11-15T04:57:30;1.77;;;1.67;;
10246;SDS011;5168;47.854;7.944;2022-11-15T04:59:56;4.00;;;1.80;;
10246;SDS011;5168;47.854;7.944;2022-11-15T05:02:21;1.93;;;1.70;;
10246;SDS011;5168;47.854;7.944;2022-11-15T05:04:47;1.90;;;1.73;;
10246;SDS011;5168;47.854;7.944;2022-11-15T05:07:13;3.40;;;1.87;;
10246;SDS011;5168;47.854;7.944;2022-11-15T05:09:39;2.23;;;1.70;;
10246;SDS011;5168;47.854;7.944;2022-11-15T05:12:05;1.80;;;1.70;;
10246;SDS011;5168;47.854;7.944;2022-11-15T05:14:31;1.70;;;1.60;;
10246;SDS011;5168;47.854;7.944;2022-11-15T05:16:57;2.40;;;1.97;;
10246;SDS011;5168;47.854;7.944;2022-11-15T05:19:23;1.90;;;1.80;;
10246;SDS011;5168;47.854;7.944;2022-11-15T05:21:49;2.80;;;1.80;;
10246;SDS011;5168;47.854;7.944;2022-11-15T05:24:15;1.60;;;1.50;;
10246;SDS011;5168;47.854;7.944;2022-11-15T05:26:41;3.23;;;2.10;;
10246;SDS011;5168;47.854;7.944;2022-11-15T05:29:08;2.73;;;2.00;;
10246;SDS011;5168;47.854;7.944;2022-11-15T05:31:34;2.67;;;1.80;;
10246;SDS011;5168;47.854;7.944;2022-11-15T05:34:04;3.57;;;2.00;;
10246;SDS011;5168;47.854;7.944;2022-11-15T05:39:10;1.93;;;1.83;;
10246;SDS011;5168;47.854;7.944;2022-11-15T05:41:40;1.97;;;1.80;;
10246;SDS011;5168;47.854;7.944;2022-11-15T05:44:10;2.30;;;2.10;;
10246;SDS011;5168;47.854;7.944;2022-11-15T05:46:38;2.10;;;1.90;;
10246;SDS011;5168;47.854;7.944;2022-11-15T05:49:05;3.20;;;2.23;;
10246;SDS011;5168;47.854;7.944;2022-11-15T05:51:34;2.10;;;1.90;;
10246;SDS011;5168;47.854;7.944;2022-11-15T05:54:00;1.93;;;1.80;;
10246;SDS011;5168;47.854;7.944;2022-11-15T05:56:26;1.80;;;1.70;;
10246;SDS011;5168;47.854;7.944;2022-11-15T05:58:53;2.20;;;1.70;;
10246;SDS011;5168;47.854;7.944;2022-11-15T06:01:20;1.90;;;1.80;;
10246;SDS011;5168;47.854;7.944;2022-11-15T06:03:46;4.80;;;2.90;;
10246;SDS011;5168;47.854;7.944;2022-11-15T06:06:12;2.53;;;2.00;;
10246;SDS011;5168;47.854;7.944;2022-11-15T06:08:38;1.90;;;1.80;;
10246;SDS011;5168;47.854;7.944;2022-11-15T06:11:04;2.00;;;1.83;;
10246;SDS011;5168;47.854;7.944;2022-11-15T06:13:30;2.77;;;2.30;;
10246;SDS011;5168;47.854;7.944;2022-11-15T06:15:57;2.40;;;2.20;;
10246;SDS011;5168;47.854;7.944;2022-11-15T06:18:22;1.67;;;1.57;;
10246;SDS011;5168;47.854;7.944;2022-11-15T06:20:48;2.60;;;2.17;;
10246;SDS011;5168;47.854;7.944;2022-11-15T06:23:14;1.80;;;1.70;;
10246;SDS011;5168;47.854;7.944;2022-11-15T06:25:40;2.70;;;2.30;;
10246;SDS011;5168;47.854;7.944;2022-11-15T06:28:06;2.27;;;1.80;;
10246;SDS011;5168;47.854;7.944;2022-11-15T06:30:32;2.33;;;2.13;;
10246;SDS011;5168;47.854;7.944;2022-11-15T06:33:02;2.00;;;1.90;;
10246;SDS011;5168;47.854;7.944;2022-11-15T06:35:29;2.30;;;2.10;;
10246;SDS011;5168;47.854;7.944;2022-11-15T06:37:55;2.50;;;2.30;;
10246;SDS011;5168;47.854;7.944;2022-11-15T06:40:26;1.87;;;1.77;;
10246;SDS011;5168;47.854;7.944;2022-11-15T06:42:56;1.53;;;1.43;;
10246;SDS011;5168;47.854;7.944;2022-11-15T06:45:25;3.73;;;2.60;;
10246;SDS011;5168;47.854;7.944;2022-11-15T06:47:51;5.03;;;2.03;;
10246;SDS011;5168;47.854;7.944;2022-11-15T06:50:17;2.13;;;1.90;;
10246;SDS011;5168;47.854;7.944;2022-11-15T06:52:43;2.40;;;2.20;;
10246;SDS011;5168;47.854;7.944;2022-11-15T06:55:09;2.30;;;2.10;;
10246;SDS011;5168;47.854;7.944;2022-11-15T06:57:35;1.83;;;1.73;;
10246;SDS011;5168;47.854;7.944;2022-11-15T07:00:02;2.30;;;1.90;;
10246;SDS011;5168;47.854;7.944;2022-11-15T07:02:29;1.67;;;1.57;;
10246;SDS011;5168;47.854;7.944;2022-11-15T07:04:55;1.73;;;1.63;;
10246;SDS011;5168;47.854;7.944;2022-11-15T07:07:20;1.70;;;1.60;;
10246;SDS011;5168;47.854;7.944;2022-11-15T07:09:46;1.57;;;1.47;;
10246;SDS011;5168;47.854;7.944;2022-11-15T07:12:12;1.80;;;1.70;;
10246;SDS011;5168;47.854;7.944;2022-11-15T07:14:38;1.70;;;1.60;;
10246;SDS011;5168;47.854;7.944;2022-11-15T07:17:04;1.60;;;1.50;;
10246;SDS011;5168;47.854;7.944;2022-11-15T07:19:30;2.10;;;1.60;;
10246;SDS011;5168;47.854;7.944;2022-11-15T07:21:57;1.97;;;1.87;;
10246;SDS011;5168;47.854;7.944;2022-11-15T07:24:22;1.57;;;1.47;;
10246;SDS011;5168;47.854;7.944;2022-11-15T07:26:48;1.93;;;1.60;;
10246;SDS011;5168;47.854;7.944;2022-11-15T07:29:14;2.60;;;1.70;;
10246;SDS011;5168;47.854;7.944;2022-11-15T07:31:40;1.67;;;1.57;;
10246;SDS011;5168;47.854;7.944;2022-11-15T07:34:06;1.70;;;1.60;;
10246;SDS011;5168;47.854;7.944;2022-11-15T07:36:32;1.67;;;1.57;;
10246;SDS011;5168;47.854;7.944;2022-11-15T07:38:58;2.13;;;1.70;;
10246;SDS011;5168;47.854;7.944;2022-11-15T07:41:24;3.60;;;2.40;;
10246;SDS011;5168;47.854;7.944;2022-11-15T07:43:53;2.27;;;2.07;;
10246;SDS011;5168;47.854;7.944;2022-11-15T07:46:18;2.03;;;1.53;;
10246;SDS011;5168;47.854;7.944;2022-11-15T07:48:44;2.80;;;2.00;;
10246;SDS011;5168;47.854;7.944;2022-11-15T07:51:11;1.83;;;1.73;;
10246;SDS011;5168;47.854;7.944;2022-11-15T07:53:38;2.20;;;2.00;;
10246;SDS011;5168;47.854;7.944;2022-11-15T07:56:07;1.60;;;1.50;;
10246;SDS011;5168;47.854;7.944;2022-11-15T07:58:33;1.60;;;1.50;;
10246;SDS011;5168;47.854;7.944;2022-11-15T08:01:02;1.60;;;1.50;;
10246;SDS011;5168;47.854;7.944;2022-11-15T08:03:28;1.70;;;1.60;;
10246;SDS011;5168;47.854;7.944;2022-11-15T08:05:54;1.80;;;1.70;;
10246;SDS011;5168;47.854;7.944;2022-11-15T08:08:20;2.10;;;1.53;;
10246;SDS011;5168;47.854;7.944;2022-11-15T08:10:46;1.70;;;1.60;;
10246;SDS011;5168;47.854;7.944;2022-11-15T08:13:12;1.80;;;1.70;;
10246;SDS011;5168;47.854;7.944;2022-11-15T08:15:38;1.97;;;1.87;;
10246;SDS011;5168;47.854;7.944;2022-11-15T08:18:06;3.47;;;1.80;;
10246;SDS011;5168;47.854;7.944;2022-11-15T08:20:36;2.10;;;2.00;;
10246;SDS011;5168;47.854;7.944;2022-11-15T08:23:03;1.87;;;1.70;;
10246;SDS011;5168;47.854;7.944;2022-11-15T08:25:29;5.23;;;2.80;;
10246;SDS011;5168;47.854;7.944;2022-11-15T08:27:57;3.67;;;2.37;;
10246;SDS011;5168;47.854;7.944;2022-11-15T08:30:25;2.37;;;2.00;;
10246;SDS011;5168;47.854;7.944;2022-11-15T08:32:52;2.07;;;1.80;;
10246;SDS011;5168;47.854;7.944;2022-11-15T08:35:18;1.87;;;1.77;;
10246;SDS011;5168;47.854;7.944;2022-11-15T08:37:44;1.90;;;1.80;;
10246;SDS011;5168;47.854;7.944;2022-11-15T08:40:11;1.77;;;1.63;;
10246;SDS011;5168;47.854;7.944;2022-11-15T08:42:38;2.37;;;2.17;;
10246;SDS011;5168;47.854;7.944;2022-11-15T08:45:04;1.70;;;1.60;;
10246;SDS011;5168;47.854;7.944;2022-11-15T08:47:30;2.00;;;1.80;;
10246;SDS011;5168;47.854;7.944;2022-11-15T08:49:55;2.43;;;2.23;;
10246;SDS011;5168;47.854;7.944;2022-11-15T08:52:21;3.37;;;1.80;;
10246;SDS011;5168;47.854;7.944;2022-11-15T08:54:47;1.90;;;1.80;;
10246;SDS011;5168;47.854;7.944;2022-11-15T08:57:13;2.77;;;1.80;;
10246;SDS011;5168;47.854;7.944;2022-11-15T08:59:39;3.30;;;1.90;;
10246;SDS011;5168;47.854;7.944;2022-11-15T09:02:05;2.57;;;2.10;;
10246;SDS011;5168;47.854;7.944;2022-11-15T09:04:31;2.33;;;2.13;;
10246;SDS011;5168;47.854;7.944;2022-11-15T09:06:57;2.83;;;2.00;;
10246;SDS011;5168;47.854;7.944;2022-11-15T09:09:23;2.20;;;2.00;;
10246;SDS011;5168;47.854;7.944;2022-11-15T09:11:49;2.70;;;2.20;;
10246;SDS011;5168;47.854;7.944;2022-11-15T09:14:15;2.07;;;1.97;;
10246;SDS011;5168;47.854;7.944;2022-11-15T09:16:41;1.60;;;1.50;;
10246;SDS011;5168;47.854;7.944;2022-11-15T09:19:07;1.93;;;1.73;;
10246;SDS011;5168;47.854;7.944;2022-11-15T09:21:33;2.20;;;1.60;;
10246;SDS011;5168;47.854;7.944;2022-11-15T09:23:58;2.03;;;1.53;;
10246;SDS011;5168;47.854;7.944;2022-11-15T09:26:25;1.90;;;1.80;;
10246;SDS011;5168;47.854;7.944;2022-11-15T09:28:51;1.60;;;1.50;;
10246;SDS011;5168;47.854;7.944;2022-11-15T09:31:17;1.77;;;1.67;;
10246;SDS011;5168;47.854;7.944;2022-11-15T09:33:43;2.23;;;1.57;;
10246;SDS011;5168;47.854;7.944;2022-11-15T09:36:09;1.60;;;1.50;;
10246;SDS011;5168;47.854;7.944;2022-11-15T09:38:35;2.17;;;1.97;;
10246;SDS011;5168;47.854;7.944;2022-11-15T09:43:49;2.20;;;2.00;;
10246;SDS011;5168;47.854;7.944;2022-11-15T09:46:35;1.70;;;1.47;;
10246;SDS011;5168;47.854;7.944;2022-11-15T09:49:03;1.70;;;1.60;;
10246;SDS011;5168;47.854;7.944;2022-11-15T09:56:30;1.70;;;1.60;;
10246;SDS011;5168;47.854;7.944;2022-11-15T10:04:13;1.90;;;1.80;;
10246;SDS011;5168;47.854;7.944;2022-11-15T10:06:42;1.80;;;1.70;;
10246;SDS011;5168;47.854;7.944;2022-11-15T10:09:16;2.30;;;2.07;;
10246;SDS011;5168;47.854;7.944;2022-11-15T10:11:51;1.73;;;1.63;;
10246;SDS011;5168;47.854;7.944;2022-11-15T10:14:18;1.80;;;1.70;;
10246;SDS011;5168;47.854;7.944;2022-11-15T10:16:52;1.93;;;1.83;;
10246;SDS011;5168;47.854;7.944;2022-11-15T10:22:30;1.90;;;1.60;;
10246;SDS011;5168;47.854;7.944;2022-11-15T10:25:03;2.47;;;2.27;;
10246;SDS011;5168;47.854;7.944;2022-11-15T10:27:40;2.43;;;1.93;;
10246;SDS011;5168;47.854;7.944;2022-11-15T10:30:10;2.93;;;2.40;;
10246;SDS011;5168;47.854;7.944;2022-11-15T10:32:37;2.33;;;1.60;;
10246;SDS011;5168;47.854;7.944;2022-11-15T10:35:25;2.00;;;1.80;;
10246;SDS011;5168;47.854;7.944;2022-11-15T10:38:04;2.27;;;1.70;;
10246;SDS011;5168;47.854;7.944;2022-11-15T10:40:34;1.50;;;1.40;;
10246;SDS011;5168;47.854;7.944;2022-11-15T10:43:19;1.73;;;1.47;;
10246;SDS011;5168;47.854;7.944;2022-11-15T10:45:45;1.73;;;1.63;;
10246;SDS011;5168;47.854;7.944;2022-11-15T10:50:37;3.37;;;1.80;;
10246;SDS011;5168;47.854;7.944;2022-11-15T10:53:49;1.57;;;1.47;;
10246;SDS011;5168;47.854;7.944;2022-11-15T10:56:06;1.87;;;1.60;;
10246;SDS011;5168;47.854;7.944;2022-11-15T10:58:37;1.47;;;1.37;;
10246;SDS011;5168;47.854;7.944;2022-11-15T11:01:44;2.40;;;1.80;;
10246;SDS011;5168;47.854;7.944;2022-11-15T11:04:10;2.60;;;1.70;;
10246;SDS011;5168;47.854;7.944;2022-11-15T11:09:34;1.93;;;1.70;;
10246;SDS011;5168;47.854;7.944;2022-11-15T11:12:02;1.60;;;1.50;;
10246;SDS011;5168;47.854;7.944;2022-11-15T11:14:30;1.60;;;1.50;;
10246;SDS011;5168;47.854;7.944;2022-11-15T11:17:00;2.07;;;1.70;;
10246;SDS011;5168;47.854;7.944;2022-11-15T11:24:56;3.03;;;1.90;;
10246;SDS011;5168;47.854;7.944;2022-11-15T11:27:51;2.83;;;1.70;;
10246;SDS011;5168;47.854;7.944;2022-11-15T11:33:44;1.87;;;1.77;;
10246;SDS011;5168;47.854;7.944;2022-11-15T11:36:39;2.57;;;1.90;;
10246;SDS011;5168;47.854;7.944;2022-11-15T11:40:10;2.50;;;2.30;;
10246;SDS011;5168;47.854;7.944;2022-11-15T11:42:23;2.47;;;1.90;;
10246;SDS011;5168;47.854;7.944;2022-11-15T11:47:23;2.87;;;2.00;;
10246;SDS011;5168;47.854;7.944;2022-11-15T11:50:28;2.07;;;1.90;;
10246;SDS011;5168;47.854;7.944;2022-11-15T11:53:37;2.00;;;1.80;;
10246;SDS011;5168;47.854;7.944;2022-11-15T11:55:57;1.63;;;1.53;;
10246;SDS011;5168;47.854;7.944;2022-11-15T11:58:43;2.50;;;2.00;;
10246;SDS011;5168;47.854;7.944;2022-11-15T12:03:41;2.20;;;1.60;;
10246;SDS011;5168;47.854;7.944;2022-11-15T12:06:51;1.60;;;1.50;;
10246;SDS011;5168;47.854;7.944;2022-11-15T12:09:30;1.93;;;1.73;;
10246;SDS011;5168;47.854;7.944;2022-11-15T12:12:20;1.60;;;1.50;;
10246;SDS011;5168;47.854;7.944;2022-11-15T12:14:49;1.50;;;1.40;;
10246;SDS011;5168;47.854;7.944;2022-11-15T12:17:28;1.60;;;1.50;;
10246;SDS011;5168;47.854;7.944;2022-11-15T12:20:05;1.67;;;1.53;;
10246;SDS011;5168;47.854;7.944;2022-11-15T12:22:53;3.73;;;1.87;;
10246;SDS011;5168;47.854;7.944;2022-11-15T12:25:35;1.90;;;1.80;;
10246;SDS011;5168;47.854;7.944;2022-11-15T12:28:15;1.60;;;1.50;;
10246;SDS011;5168;47.854;7.944;2022-11-15T12:30:56;1.70;;;1.60;;
10246;SDS011;5168;47.854;7.944;2022-11-15T12:33:36;1.63;;;1.53;;
10246;SDS011;5168;47.854;7.944;2022-11-15T12:36:09;1.80;;;1.40;;
10246;SDS011;5168;47.854;7.944;2022-11-15T12:41:17;3.43;;;1.83;;
10246;SDS011;5168;47.854;7.944;2022-11-15T12:43:44;1.83;;;1.73;;
10246;SDS011;5168;47.854;7.944;2022-11-15T12:46:13;3.90;;;2.23;;
10246;SDS011;5168;47.854;7.944;2022-11-15T13:02:43;2.47;;;1.90;;
10246;SDS011;5168;47.854;7.944;2022-11-15T13:10:28;2.40;;;2.20;;
10246;SDS011;5168;47.854;7.944;2022-11-15T13:15:32;2.90;;;1.93;;
10246;SDS011;5168;47.854;7.944;2022-11-15T13:17:58;1.73;;;1.63;;
10246;SDS011;5168;47.854;7.944;2022-11-15T13:20:27;2.03;;;1.50;;
10246;SDS011;5168;47.854;7.944;2022-11-15T13:28:09;3.07;;;1.90;;
10246;SDS011;5168;47.854;7.944;2022-11-15T13:30:38;3.60;;;2.07;;
10246;SDS011;5168;47.854;7.944;2022-11-15T13:33:25;4.97;;;2.47;;
10246;SDS011;5168;47.854;7.944;2022-11-15T13:36:00;4.70;;;2.70;;
10246;SDS011;5168;47.854;7.944;2022-11-15T13:38:54;3.83;;;2.17;;
10246;SDS011;5168;47.854;7.944;2022-11-15T13:41:27;1.87;;;1.70;;
10246;SDS011;5168;47.854;7.944;2022-11-15T13:43:55;1.83;;;1.73;;
10246;SDS011;5168;47.854;7.944;2022-11-15T13:46:22;2.03;;;1.93;;
10246;SDS011;5168;47.854;7.944;2022-11-15T13:48:59;1.83;;;1.73;;
10246;SDS011;5168;47.854;7.944;2022-11-15T13:56:44;1.67;;;1.57;;
10246;SDS011;5168;47.854;7.944;2022-11-15T13:59:15;1.50;;;1.40;;
10246;SDS011;5168;47.854;7.944;2022-11-15T14:01:49;2.80;;;1.73;;
10246;SDS011;5168;47.854;7.944;2022-11-15T14:04:18;2.00;;;1.80;;
10246;SDS011;5168;47.854;7.944;2022-11-15T14:06:47;2.30;;;1.87;;
10246;SDS011;5168;47.854;7.944;2022-11-15T14:09:28;2.03;;;1.90;;
10246;SDS011;5168;47.854;7.944;2022-11-15T14:11:58;1.90;;;1.80;;
10246;SDS011;5168;47.854;7.944;2022-11-15T14:14:24;2.27;;;2.07;;
10246;SDS011;5168;47.854;7.944;2022-11-15T14:16:52;2.23;;;2.03;;
10246;SDS011;5168;47.854;7.944;2022-11-15T14:24:34;4.60;;;2.57;;
10246;SDS011;5168;47.854;7.944;2022-11-15T14:29:47;3.30;;;2.37;;
10246;SDS011;5168;47.854;7.944;2022-11-15T14:34:44;2.53;;;2.33;;
10246;SDS011;5168;47.854;7.944;2022-11-15T14:37:19;2.10;;;2.00;;
10246;SDS011;5168;47.854;7.944;2022-11-15T14:39:46;2.20;;;1.90;;
10246;SDS011;5168;47.854;7.944;2022-11-15T14:42:12;2.30;;;2.10;;
10246;SDS011;5168;47.854;7.944;2022-11-15T14:44:38;2.30;;;2.00;;
10246;SDS011;5168;47.854;7.944;2022-11-15T14:47:04;2.30;;;2.10;;
10246;SDS011;5168;47.854;7.944;2022-11-15T14:49:30;9.70;;;4.57;;
10246;SDS011;5168;47.854;7.944;2022-11-15T14:51:56;4.27;;;3.13;;
10246;SDS011;5168;47.854;7.944;2022-11-15T14:54:22;3.57;;;2.80;;
10246;SDS011;5168;47.854;7.944;2022-11-15T14:56:48;2.90;;;2.30;;
10246;SDS011;5168;47.854;7.944;2022-11-15T14:59:14;2.57;;;2.30;;
10246;SDS011;5168;47.854;7.944;2022-11-15T15:01:39;3.27;;;2.03;;
10246;SDS011;5168;47.854;7.944;2022-11-15T15:04:05;2.47;;;2.07;;
10246;SDS011;5168;47.854;7.944;2022-11-15T15:06:31;3.27;;;2.47;;
10246;SDS011;5168;47.854;7.944;2022-11-15T15:08:57;2.53;;;2.33;;
10246;SDS011;5168;47.854;7.944;2022-11-15T15:11:25;3.20;;;2.57;;
10246;SDS011;5168;47.854;7.944;2022-11-15T15:13:52;2.10;;;2.00;;
10246;SDS011;5168;47.854;7.944;2022-11-15T15:16:22;2.70;;;1.97;;
10246;SDS011;5168;47.854;7.944;2022-11-15T15:18:48;2.20;;;2.00;;
10246;SDS011;5168;47.854;7.944;2022-11-15T15:21:19;2.27;;;2.07;;
10246;SDS011;5168;47.854;7.944;2022-11-15T15:23:45;3.53;;;2.30;;
10246;SDS011;5168;47.854;7.944;2022-11-15T15:26:11;2.63;;;2.33;;
10246;SDS011;5168;47.854;7.944;2022-11-15T15:28:37;2.70;;;2.30;;
10246;SDS011;5168;47.854;7.944;2022-11-15T15:31:04;2.47;;;2.10;;
10246;SDS011;5168;47.854;7.944;2022-11-15T15:33:30;2.67;;;2.47;;
10246;SDS011;5168;47.854;7.944;2022-11-15T15:35:56;2.50;;;2.20;;
10246;SDS011;5168;47.854;7.944;2022-11-15T15:38:23;2.67;;;2.30;;
10246;SDS011;5168;47.854;7.944;2022-11-15T15:40:49;2.40;;;2.20;;
10246;SDS011;5168;47.854;7.944;2022-11-15T15:43:15;4.53;;;2.40;;
10246;SDS011;5168;47.854;7.944;2022-11-15T15:45:41;2.60;;;2.40;;
10246;SDS011;5168;47.854;7.944;2022-11-15T15:48:14;2.03;;;1.93;;
10246;SDS011;5168;47.854;7.944;2022-11-15T15:50:41;2.37;;;2.17;;
10246;SDS011;5168;47.854;7.944;2022-11-15T15:53:10;2.63;;;2.27;;
10246;SDS011;5168;47.854;7.944;2022-11-15T15:55:37;3.13;;;2.10;;
10246;SDS011;5168;47.854;7.944;2022-11-15T15:58:03;2.87;;;2.30;;
10246;SDS011;5168;47.854;7.944;2022-11-15T16:00:29;2.23;;;2.10;;
10246;SDS011;5168;47.854;7.944;2022-11-15T16:02:58;2.13;;;1.93;;
10246;SDS011;5168;47.854;7.944;2022-11-15T16:05:23;4.10;;;2.33;;
10246;SDS011;5168;47.854;7.944;2022-11-15T16:07:50;3.43;;;2.30;;
10246;SDS011;5168;47.854;7.944;2022-11-15T16:12:44;2.10;;;2.00;;
10246;SDS011;5168;47.854;7.944;2022-11-15T16:15:10;3.53;;;2.23;;
10246;SDS011;5168;47.854;7.944;2022-11-15T16:17:42;3.73;;;2.10;;
10246;SDS011;5168;47.854;7.944;2022-11-15T16:23:05;5.30;;;2.00;;
10246;SDS011;5168;47.854;7.944;2022-11-15T16:25:34;2.40;;;2.00;;
10246;SDS011;5168;47.854;7.944;2022-11-15T16:28:03;2.30;;;2.10;;
10246;SDS011;5168;47.854;7.944;2022-11-15T16:30:29;3.67;;;2.13;;
10246;SDS011;5168;47.854;7.944;2022-11-15T16:32:55;2.00;;;1.90;;
10246;SDS011;5168;47.854;7.944;2022-11-15T16:35:21;2.50;;;2.30;;
10246;SDS011;5168;47.854;7.944;2022-11-15T16:37:47;2.73;;;2.00;;
10246;SDS011;5168;47.854;7.944;2022-11-15T16:42:50;2.83;;;2.10;;
10246;SDS011;5168;47.854;7.944;2022-11-15T16:45:16;2.13;;;1.97;;
10246;SDS011;5168;47.854;7.944;2022-11-15T16:47:42;2.70;;;2.50;;
10246;SDS011;5168;47.854;7.944;2022-11-15T16:50:18;2.83;;;2.40;;
10246;SDS011;5168;47.854;7.944;2022-11-15T16:52:49;3.03;;;2.40;;
10246;SDS011;5168;47.854;7.944;2022-11-15T16:55:20;3.00;;;2.63;;
10246;SDS011;5168;47.854;7.944;2022-11-15T16:57:47;3.20;;;2.40;;
10246;SDS011;5168;47.854;7.944;2022-11-15T17:00:16;2.67;;;2.47;;
10246;SDS011;5168;47.854;7.944;2022-11-15T17:02:43;5.60;;;2.90;;
10246;SDS011;5168;47.854;7.944;2022-11-15T17:05:10;3.17;;;2.80;;
10246;SDS011;5168;47.854;7.944;2022-11-15T17:07:36;3.67;;;2.80;;
10246;SDS011;5168;47.854;7.944;2022-11-15T17:10:02;2.63;;;2.30;;
10246;SDS011;5168;47.854;7.944;2022-11-15T17:12:28;4.00;;;2.67;;
10246;SDS011;5168;47.854;7.944;2022-11-15T17:14:55;3.10;;;2.60;;